Madison, MN

8:13 AM CDT on October 16, 2019 (GMT -0500)
Madison-Lac Qui Parle County

Weather History for KDXX - August, 2019

Change the Weather History Date:

Sunday, August 18, 2019

  Actual Average (WUND) Record (WUND)
Temperature  
Mean Temperature 66 °F -  
Max Temperature 73 °F - - (-1)
Min Temperature 59 °F - - (-1)
Cooling Degree Days 2    
Growing Degree Days 16 (Base 50)    
Moisture  
Dew Point 56 °F    
Average Humidity 73    
Maximum Humidity 100    
Minimum Humidity 44    
Precipitation  
Precipitation 0.02 in - - ()
Sea Level Pressure  
Sea Level Pressure 29.86 in    
Wind  
Wind Speed 7 mph (NW)    
Max Wind Speed 18 mph    
Max Gust Speed 22 mph    
Visibility 10 miles    
Events Rain , Thunderstorm    
Averages and records for this station are not official NWS values.
T = Trace of Precipitation, MM = Missing Value Source: NWS Daily Summary

Daily Weather History Graph

Daily Weather History Graph

Search for Another Location

Airport or City:

Astronomy

Aug. 18, 2019 Rise Set
Actual Time 6:29 AM CDT 8:26 PM CDT
Civil Twilight 5:58 AM CDT 8:58 PM CDT
Nautical Twilight 5:19 AM CDT 9:36 PM CDT
Astronomical Twilight 4:36 AM CDT 10:18 PM CDT
Moon 10:14 PM CDT (8/18) 9:21 AM CDT (8/18)
Length of Visible Light 14h 59m
Length of Day
13h 56m
Waning Gibbous, 91% of the Moon is Illuminated
Aug 18
Waning Gibbous
Aug 23
Last Quarter
Aug 30
New
Sep 5
First Quarter
Sep 13
Full

Hourly Weather History & Observations

Time (CDT) Temp. Dew Point Humidity Pressure Visibility Wind Dir Wind Speed Gust Speed Precip Events Conditions
12:19 AM 66.2 °F 64.4 °F 94% 29.77 in 10.0 mi Calm Calm - N/A   Overcast
12:36 AM 66.2 °F 64.4 °F 94% 29.68 in 10.0 mi ESE 10.4 mph - 0.07 in Rain Rain
12:55 AM 66.2 °F 64.4 °F 94% 29.71 in 10.0 mi NNE 5.8 mph - N/A Rain , Thunderstorm Thunderstorms and Rain
1:15 AM 66.2 °F 64.4 °F 94% 29.71 in 10.0 mi North 6.9 mph - N/A Rain Light Rain
1:16 AM 66.2 °F 64.4 °F 94% 29.71 in 10.0 mi North 6.9 mph - 0.02 in Rain Light Rain
1:38 AM 66.2 °F 64.4 °F 94% 29.67 in 10.0 mi North 5.8 mph - 0.01 in Rain Light Rain
1:57 AM 66.2 °F 64.4 °F 94% 29.68 in 10.0 mi NW 5.8 mph - N/A Rain Light Rain
2:16 AM 64.4 °F 64.4 °F 100% 29.70 in 10.0 mi NW 9.2 mph - N/A   Clear
2:35 AM 64.4 °F 64.4 °F 100% 29.72 in 10.0 mi WNW 5.8 mph - N/A   Scattered Clouds
2:36 AM 64.4 °F 64.4 °F 100% 29.72 in 10.0 mi WNW 5.8 mph - N/A   Clear
2:55 AM 64.4 °F 64.4 °F 100% 29.73 in 10.0 mi NW 8.1 mph - N/A   Scattered Clouds
3:16 AM 66.2 °F 64.4 °F 94% 29.73 in 10.0 mi NW 6.9 mph - N/A   Mostly Cloudy
3:35 AM 64.4 °F 64.4 °F 100% 29.75 in 7.0 mi NNW 17.3 mph 21.9 mph N/A   Overcast
3:36 AM 64.4 °F 64.4 °F 100% 29.75 in 7.0 mi NNW 18.4 mph 21.9 mph N/A   Overcast
3:55 AM 64.4 °F 62.6 °F 94% 29.75 in 5.0 mi NNW 15.0 mph 19.6 mph N/A   Drizzle
3:56 AM 64.4 °F 62.6 °F 94% 29.75 in 5.0 mi NNW 16.1 mph 19.6 mph N/A   Drizzle
4:15 AM 62.6 °F 62.6 °F 100% 29.77 in 5.0 mi NNW 16.1 mph - N/A   Light Drizzle
4:19 AM 62.6 °F 62.6 °F 100% 29.77 in 7.0 mi NNW 17.3 mph - N/A   Light Drizzle
4:38 AM 62.6 °F 60.8 °F 94% 29.77 in 10.0 mi NNW 11.5 mph 20.7 mph N/A   Overcast
4:55 AM 62.6 °F 60.8 °F 94% 29.77 in 10.0 mi NNW 10.4 mph - N/A   Overcast
5:15 AM 62.6 °F 59.0 °F 88% 29.77 in 10.0 mi NW 12.7 mph - N/A   Overcast
5:16 AM 62.6 °F 59.0 °F 88% 29.77 in 10.0 mi NW 12.7 mph - N/A   Overcast
5:35 AM 62.6 °F 57.2 °F 82% 29.77 in 10.0 mi NNW 12.7 mph 18.4 mph N/A   Overcast
5:59 AM 62.6 °F 57.2 °F 82% 29.77 in 10.0 mi NNW 11.5 mph - N/A   Overcast
6:17 AM 62.6 °F 57.2 °F 82% 29.77 in 10.0 mi NW 9.2 mph - N/A   Overcast
6:36 AM 60.8 °F 57.2 °F 88% 29.79 in 10.0 mi WNW 5.8 mph - N/A   Mostly Cloudy
6:55 AM 60.8 °F 57.2 °F 88% 29.79 in 10.0 mi WNW 6.9 mph - N/A   Scattered Clouds
6:56 AM 60.8 °F 57.2 °F 88% 29.79 in 10.0 mi WNW 5.8 mph - N/A   Scattered Clouds
7:15 AM 60.8 °F 57.2 °F 88% 29.81 in 10.0 mi WNW 6.9 mph - N/A   Scattered Clouds
7:19 AM 60.8 °F 57.2 °F 88% 29.81 in 10.0 mi WNW 8.1 mph - N/A   Clear
7:37 AM 60.8 °F 57.2 °F 88% 29.82 in 10.0 mi WNW 5.8 mph - N/A   Clear
7:56 AM 62.6 °F 59.0 °F 88% 29.84 in 10.0 mi WNW 9.2 mph - N/A   Clear
8:15 AM 62.6 °F 57.2 °F 82% 29.84 in 10.0 mi NW 9.2 mph - N/A   Clear
8:16 AM 62.6 °F 57.2 °F 82% 29.85 in 10.0 mi NW 8.1 mph - N/A   Clear
8:35 AM 62.6 °F 57.2 °F 82% 29.85 in 10.0 mi NW 11.5 mph - N/A   Clear
8:57 AM 64.4 °F 57.2 °F 77% 29.87 in 10.0 mi NW 9.2 mph - N/A   Clear
9:15 AM 64.4 °F 57.2 °F 77% 29.87 in 10.0 mi NW 9.2 mph - N/A   Clear
9:35 AM 64.4 °F 55.4 °F 73% 29.88 in 10.0 mi NNW 6.9 mph - N/A   Clear
9:55 AM 64.4 °F 55.4 °F 73% 29.89 in 10.0 mi NNW 4.6 mph - N/A   Clear
9:56 AM 64.4 °F 55.4 °F 73% 29.88 in 10.0 mi NNW 4.6 mph - N/A   Clear
10:19 AM 64.4 °F 53.6 °F 68% 29.90 in 10.0 mi WNW 3.5 mph - N/A   Clear
10:37 AM 64.4 °F 53.6 °F 68% 29.90 in 10.0 mi WNW 6.9 mph - N/A   Clear
10:56 AM 66.2 °F 55.4 °F 68% 29.91 in 10.0 mi WNW 8.1 mph - N/A   Clear
11:15 AM 66.2 °F 53.6 °F 64% 29.91 in 10.0 mi WNW 6.9 mph - N/A   Clear
11:35 AM 66.2 °F 53.6 °F 64% 29.91 in 10.0 mi WNW 6.9 mph - N/A   Clear
11:39 AM 68.0 °F 53.6 °F 60% 29.92 in 10.0 mi WNW 9.2 mph - N/A   Clear
11:57 AM 68.0 °F 53.6 °F 60% 29.92 in 10.0 mi NW 9.2 mph - N/A   Clear
12:16 PM 68.0 °F 51.8 °F 56% 29.92 in 10.0 mi NNW 5.8 mph - N/A   Clear
12:35 PM 69.8 °F 51.8 °F 53% 29.92 in 10.0 mi WNW 9.2 mph - N/A   Clear
12:36 PM 69.8 °F 51.8 °F 53% 29.93 in 10.0 mi West 8.1 mph - N/A   Clear
12:55 PM 69.8 °F 51.8 °F 53% 29.93 in 10.0 mi NW 5.8 mph - N/A   Clear
12:56 PM 69.8 °F 51.8 °F 53% 29.92 in 10.0 mi WNW 5.8 mph - N/A   Clear
1:18 PM 69.8 °F 51.8 °F 53% 29.92 in 10.0 mi WNW 6.9 mph - N/A   Clear
1:36 PM 71.6 °F 51.8 °F 50% 29.92 in 10.0 mi WNW 8.1 mph - N/A   Clear
1:55 PM 71.6 °F 51.8 °F 50% 29.92 in 10.0 mi WNW 8.1 mph - N/A   Clear
1:56 PM 71.6 °F 50.0 °F 46% 29.92 in 10.0 mi NW 6.9 mph - N/A   Clear
2:15 PM 71.6 °F 51.8 °F 50% 29.92 in 10.0 mi NW 5.8 mph - N/A   Clear
2:35 PM 71.6 °F 51.8 °F 50% 29.92 in 10.0 mi West 8.1 mph - N/A   Clear
2:39 PM 71.6 °F 51.8 °F 50% 29.92 in 10.0 mi West 8.1 mph - N/A   Clear
2:58 PM 71.6 °F 50.0 °F 46% 29.92 in 10.0 mi WNW 4.6 mph - N/A   Clear
3:15 PM 73.4 °F 51.8 °F 47% 29.91 in 10.0 mi NW 6.9 mph - N/A   Clear
3:35 PM 73.4 °F 51.8 °F 47% 29.91 in 10.0 mi NW 10.4 mph - N/A   Clear
3:36 PM 73.4 °F 51.8 °F 47% 29.91 in 10.0 mi WNW 9.2 mph - N/A   Clear
3:55 PM 73.4 °F 50.0 °F 44% 29.90 in 10.0 mi NNW 3.5 mph - N/A   Clear
4:18 PM 73.4 °F 51.8 °F 47% 29.89 in 10.0 mi NW 6.9 mph - N/A   Clear
4:37 PM 73.4 °F 51.8 °F 47% 29.89 in 10.0 mi WNW 6.9 mph - N/A   Clear
4:56 PM 73.4 °F 50.0 °F 44% 29.89 in 10.0 mi NW 5.8 mph - N/A   Clear
5:15 PM 73.4 °F 51.8 °F 47% 29.89 in 10.0 mi NNW 8.1 mph - N/A   Clear
5:16 PM 73.4 °F 51.8 °F 47% 29.89 in 10.0 mi NNW 6.9 mph - N/A   Clear
5:35 PM 73.4 °F 51.8 °F 47% 29.89 in 10.0 mi NW 5.8 mph - N/A   Clear
5:57 PM 73.4 °F 50.0 °F 44% 29.89 in 10.0 mi Calm Calm - N/A   Clear
6:15 PM 73.4 °F 51.8 °F 47% 29.89 in 10.0 mi Calm Calm - N/A   Clear
6:35 PM 73.4 °F 51.8 °F 47% 29.89 in 10.0 mi NW 3.5 mph - N/A   Clear
6:36 PM 73.4 °F 51.8 °F 47% 29.89 in 10.0 mi Calm Calm - N/A   Clear
6:55 PM 73.4 °F 51.8 °F 47% 29.89 in 10.0 mi NNW 3.5 mph - N/A   Clear
6:56 PM 73.4 °F 51.8 °F 47% 29.89 in 10.0 mi Calm Calm - N/A   Clear
7:19 PM 71.6 °F 55.4 °F 57% 29.89 in 10.0 mi Calm Calm - N/A   Clear
7:36 PM 71.6 °F 55.4 °F 57% 29.89 in 10.0 mi Calm Calm - N/A   Clear
7:56 PM 69.8 °F 57.2 °F 64% 29.90 in 10.0 mi Calm Calm - N/A   Clear
8:15 PM 68.0 °F 57.2 °F 68% 29.90 in 10.0 mi Calm Calm - N/A   Clear
8:35 PM 66.2 °F 57.2 °F 73% 29.90 in 10.0 mi SE 3.5 mph - N/A   Clear
8:39 PM 66.2 °F 57.2 °F 73% 29.90 in 10.0 mi SE 3.5 mph - N/A   Clear
8:58 PM 64.4 °F 57.2 °F 77% 29.91 in 10.0 mi Calm Calm - N/A   Clear
9:15 PM 64.4 °F 57.2 °F 77% 29.92 in 10.0 mi Calm Calm - N/A   Clear
9:35 PM 64.4 °F 57.2 °F 77% 29.93 in 10.0 mi Calm Calm - N/A   Clear
9:36 PM 64.4 °F 57.2 °F 77% 29.93 in 10.0 mi Calm Calm - N/A   Clear
9:55 PM 64.4 °F 57.2 °F 77% 29.93 in 10.0 mi Calm Calm - N/A   Clear
10:19 PM 60.8 °F 57.2 °F 88% 29.93 in 10.0 mi South 4.6 mph - N/A   Clear
10:37 PM 60.8 °F 55.4 °F 82% 29.94 in 10.0 mi SSW 4.6 mph - N/A   Clear
10:55 PM 60.8 °F 55.4 °F 82% 29.94 in 10.0 mi SSW 4.6 mph - N/A   Clear
10:56 PM 60.8 °F 55.4 °F 82% 29.94 in 10.0 mi SSW 4.6 mph - N/A   Clear
11:15 PM 60.8 °F 55.4 °F 82% 29.95 in 10.0 mi Calm Calm - N/A   Clear
11:16 PM 60.8 °F 55.4 °F 82% 29.95 in 10.0 mi Calm Calm - N/A   Clear
11:35 PM 60.8 °F 55.4 °F 82% 29.95 in 10.0 mi Calm Calm - N/A   Clear
11:57 PM 59.0 °F 55.4 °F 88% 29.95 in 10.0 mi South 4.6 mph - N/A   Clear